createdAt,value
2022-07-25T00:00:09.389Z,7.17
2022-07-25T00:02:36.031Z,7.70
2022-07-25T00:05:03.220Z,7.23
2022-07-25T00:07:29.881Z,7.10
2022-07-25T00:09:56.406Z,7.07
2022-07-25T00:12:23.975Z,7.10
2022-07-25T00:14:50.404Z,7.07
2022-07-25T00:17:16.816Z,7.83
2022-07-25T00:19:43.576Z,7.40
2022-07-25T00:22:09.996Z,7.10
2022-07-25T00:24:36.454Z,7.70
2022-07-25T00:27:02.912Z,7.63
2022-07-25T00:29:29.469Z,7.37
2022-07-25T00:31:55.921Z,7.67
2022-07-25T00:34:22.359Z,7.13
2022-07-25T00:36:48.773Z,7.57
2022-07-25T00:39:15.191Z,7.53
2022-07-25T00:41:44.384Z,7.03
2022-07-25T00:44:21.339Z,7.00
2022-07-25T00:46:51.380Z,7.33
2022-07-25T00:49:17.900Z,7.40
2022-07-25T00:51:44.962Z,7.50
2022-07-25T00:54:11.509Z,7.27
2022-07-25T00:56:38.502Z,7.80
2022-07-25T00:59:04.898Z,7.90
2022-07-25T01:01:31.528Z,7.57
2022-07-25T01:03:58.067Z,7.20
2022-07-25T01:06:25.420Z,7.17
2022-07-25T01:08:51.904Z,7.47
2022-07-25T01:11:18.308Z,7.73
2022-07-25T01:13:44.705Z,7.43
2022-07-25T01:16:11.175Z,7.40
2022-07-25T01:18:38.401Z,7.80
2022-07-25T01:21:04.969Z,7.77
2022-07-25T01:23:31.381Z,7.70
2022-07-25T01:25:57.790Z,7.63
2022-07-25T01:28:24.225Z,7.90
2022-07-25T01:30:50.673Z,7.87
2022-07-25T01:33:17.824Z,7.10
2022-07-25T01:35:44.560Z,7.97
2022-07-25T01:38:11.107Z,7.77
2022-07-25T01:40:37.577Z,7.70
2022-07-25T01:43:04.050Z,8.60
2022-07-25T01:45:30.538Z,7.97
2022-07-25T01:47:57.098Z,8.33
2022-07-25T01:50:23.707Z,8.13
2022-07-25T01:52:50.413Z,7.97
2022-07-25T01:55:16.913Z,8.00
2022-07-25T01:57:49.599Z,7.90
2022-07-25T02:00:16.954Z,8.07
2022-07-25T02:02:44.671Z,7.57
2022-07-25T02:05:11.906Z,7.90
2022-07-25T02:07:38.559Z,7.87
2022-07-25T02:10:06.109Z,7.87
2022-07-25T02:12:32.569Z,8.07
2022-07-25T02:14:58.973Z,8.17
2022-07-25T02:17:25.564Z,7.83
2022-07-25T02:19:52.042Z,8.50
2022-07-25T02:22:18.525Z,7.97
2022-07-25T02:24:44.976Z,8.63
2022-07-25T02:27:11.438Z,8.53
2022-07-25T02:29:37.889Z,8.10
2022-07-25T02:32:04.512Z,8.17
2022-07-25T02:34:30.881Z,8.47
2022-07-25T02:36:57.284Z,8.43
2022-07-25T02:39:23.667Z,8.20
2022-07-25T02:41:50.077Z,7.90
2022-07-25T02:44:16.442Z,8.50
2022-07-25T02:46:42.881Z,8.83
2022-07-25T02:49:09.755Z,8.77
2022-07-25T02:51:36.241Z,8.50
2022-07-25T02:54:02.694Z,8.47
2022-07-25T02:56:30.057Z,8.20
2022-07-25T02:58:57.320Z,8.40
2022-07-25T03:01:23.872Z,8.23
2022-07-25T03:03:50.377Z,8.77
2022-07-25T03:06:17.067Z,8.93
2022-07-25T03:08:43.493Z,8.83
2022-07-25T03:11:10.833Z,8.83
2022-07-25T03:13:37.270Z,8.83
2022-07-25T03:16:03.722Z,8.40
2022-07-25T03:18:30.150Z,8.67
2022-07-25T03:20:56.584Z,9.03
2022-07-25T03:23:24.976Z,9.10
2022-07-25T03:25:51.397Z,9.23
2022-07-25T03:28:17.761Z,9.53
2022-07-25T03:30:44.160Z,9.07
2022-07-25T03:33:10.578Z,9.20
2022-07-25T03:35:37.247Z,9.27
2022-07-25T03:38:03.731Z,9.73
2022-07-25T03:40:31.487Z,9.87
2022-07-25T03:42:57.883Z,8.83
2022-07-25T03:45:24.335Z,9.43
2022-07-25T03:47:50.748Z,9.63
2022-07-25T03:50:17.253Z,9.10
2022-07-25T03:52:43.723Z,8.93
2022-07-25T03:55:10.494Z,9.70
2022-07-25T03:57:37.058Z,9.63
2022-07-25T04:00:04.513Z,9.40
2022-07-25T04:02:32.315Z,9.57
2022-07-25T04:04:58.854Z,9.87
2022-07-25T04:07:25.395Z,9.73
2022-07-25T04:09:51.836Z,9.23
2022-07-25T04:12:18.208Z,9.47
2022-07-25T04:14:44.700Z,10.30
2022-07-25T04:17:11.111Z,9.87
2022-07-25T04:19:37.608Z,10.30
2022-07-25T04:22:04.111Z,10.07
2022-07-25T04:24:30.614Z,10.20
2022-07-25T04:26:57.051Z,10.10
2022-07-25T04:29:23.521Z,9.77
2022-07-25T04:31:51.928Z,10.10
2022-07-25T04:34:18.368Z,9.93
2022-07-25T04:36:44.755Z,9.57
2022-07-25T04:39:11.178Z,10.20
2022-07-25T04:41:37.623Z,9.73
2022-07-25T04:44:04.503Z,9.43
2022-07-25T04:46:32.936Z,10.13
2022-07-25T04:48:59.476Z,10.00
2022-07-25T04:51:25.939Z,10.00
2022-07-25T04:53:52.348Z,9.80
2022-07-25T04:56:18.791Z,9.47
2022-07-25T04:58:45.206Z,9.60
2022-07-25T05:01:11.793Z,9.43
2022-07-25T05:03:38.271Z,9.43
2022-07-25T05:06:04.723Z,9.67
2022-07-25T05:08:32.580Z,10.17
2022-07-25T05:10:58.968Z,10.03
2022-07-25T05:13:25.374Z,10.30
2022-07-25T05:15:51.788Z,10.03
2022-07-25T05:18:18.230Z,9.53
2022-07-25T05:20:44.665Z,9.20
2022-07-25T05:23:11.120Z,9.03
2022-07-25T05:25:37.583Z,8.83
2022-07-25T05:28:04.099Z,9.53
2022-07-25T05:30:30.513Z,9.67
2022-07-25T05:32:57.075Z,9.10
2022-07-25T05:35:23.508Z,9.70
2022-07-25T05:37:49.935Z,8.57
2022-07-25T05:40:16.379Z,9.37
2022-07-25T05:42:42.737Z,9.10
2022-07-25T05:45:09.284Z,8.73
2022-07-25T05:47:35.786Z,8.77
2022-07-25T05:50:02.672Z,8.90
2022-07-25T05:52:30.839Z,9.20
2022-07-25T05:54:57.274Z,9.10
2022-07-25T05:57:23.721Z,10.27
2022-07-25T05:59:50.139Z,8.30
2022-07-25T06:02:16.625Z,9.17
2022-07-25T06:04:43.105Z,8.80
2022-07-25T06:07:09.552Z,8.93
2022-07-25T06:09:38.623Z,10.37
2022-07-25T06:12:05.312Z,9.83
2022-07-25T06:14:32.461Z,10.27
2022-07-25T06:16:58.891Z,9.90
2022-07-25T06:19:25.331Z,10.07
2022-07-25T06:21:51.852Z,10.20
2022-07-25T06:24:18.380Z,9.80
2022-07-25T06:26:44.775Z,10.13
2022-07-25T06:29:11.276Z,9.80
2022-07-25T06:31:37.887Z,9.70
2022-07-25T06:34:04.625Z,9.50
2022-07-25T06:36:32.295Z,10.17
2022-07-25T06:38:59.721Z,10.23
2022-07-25T06:41:26.223Z,9.90
2022-07-25T06:43:52.694Z,10.27
2022-07-25T06:46:19.199Z,9.73
2022-07-25T06:48:45.836Z,9.67
2022-07-25T06:51:12.299Z,10.27
2022-07-25T06:53:38.769Z,9.73
2022-07-25T06:56:05.377Z,9.23
2022-07-25T06:58:33.393Z,8.87
2022-07-25T07:01:01.212Z,9.40
2022-07-25T07:03:27.981Z,9.60
2022-07-25T07:05:54.571Z,9.53
2022-07-25T07:08:20.966Z,7.73
2022-07-25T07:10:47.403Z,8.90
2022-07-25T07:13:15.209Z,9.10
2022-07-25T07:15:50.062Z,9.33
2022-07-25T07:18:17.011Z,9.30
2022-07-25T07:20:43.508Z,9.17
2022-07-25T07:23:10.375Z,9.20
2022-07-25T07:25:36.899Z,8.60
2022-07-25T07:28:04.268Z,9.60
2022-07-25T07:30:58.720Z,9.03
2022-07-25T07:33:18.638Z,9.73
2022-07-25T07:35:45.496Z,8.83
2022-07-25T07:38:12.000Z,9.27
2022-07-25T07:40:38.578Z,9.17
2022-07-25T07:43:06.346Z,9.37
2022-07-25T07:45:32.941Z,9.67
2022-07-25T07:47:59.414Z,9.73
2022-07-25T07:50:26.955Z,8.95
2022-07-25T07:52:54.609Z,9.70
2022-07-25T07:55:40.027Z,9.15
2022-07-25T07:58:07.243Z,8.98
2022-07-25T08:00:36.225Z,9.60
2022-07-25T08:03:03.221Z,9.43
2022-07-25T08:05:32.336Z,9.30
2022-07-25T08:07:59.490Z,8.88
2022-07-25T08:10:27.822Z,9.13
2022-07-25T08:12:56.661Z,8.90
2022-07-25T08:15:23.473Z,9.00
2022-07-25T08:17:50.969Z,8.93
2022-07-25T08:20:36.980Z,8.82
2022-07-25T08:23:04.566Z,9.32
2022-07-25T08:25:31.367Z,8.77
2022-07-25T08:27:57.967Z,9.00
2022-07-25T08:30:24.766Z,8.40
2022-07-25T08:32:52.742Z,7.93
2022-07-25T08:35:20.462Z,8.48
2022-07-25T08:37:49.021Z,8.75
2022-07-25T08:40:16.540Z,9.02
2022-07-25T08:42:43.186Z,8.98
2022-07-25T08:45:10.742Z,8.50
2022-07-25T08:47:37.182Z,7.70
2022-07-25T08:50:06.089Z,8.48
2022-07-25T08:52:35.950Z,8.00
2022-07-25T08:55:10.742Z,8.85
2022-07-25T08:57:38.220Z,8.35
2022-07-25T09:00:05.466Z,7.50
2022-07-25T09:02:32.403Z,7.55
2022-07-25T09:04:59.047Z,8.32
2022-07-25T09:07:32.980Z,8.23
2022-07-25T09:09:59.998Z,7.10
2022-07-25T09:12:27.671Z,7.78
2022-07-25T09:14:54.399Z,7.78
2022-07-25T09:17:23.671Z,7.40
2022-07-25T09:19:55.269Z,7.00
2022-07-25T09:22:21.757Z,7.25
2022-07-25T09:24:49.977Z,7.07
2022-07-25T09:27:18.127Z,7.50
2022-07-25T09:29:45.019Z,7.22
2022-07-25T09:32:20.616Z,7.05
2022-07-25T09:34:47.962Z,6.97
2022-07-25T09:37:18.596Z,6.97
2022-07-25T09:39:46.961Z,6.88
2022-07-25T09:42:40.213Z,7.15
2022-07-25T09:45:11.342Z,7.78
2022-07-25T09:47:51.257Z,7.47
2022-07-25T09:50:18.232Z,7.00
2022-07-25T09:52:45.115Z,6.90
2022-07-25T09:55:14.206Z,6.70
2022-07-25T09:57:40.785Z,7.03
2022-07-25T10:00:08.021Z,6.93
2022-07-25T10:02:39.987Z,6.75
2022-07-25T10:05:35.863Z,6.75
2022-07-25T10:08:05.430Z,6.25
2022-07-25T10:10:36.354Z,6.32
2022-07-25T10:13:08.020Z,5.90
2022-07-25T10:16:02.937Z,6.05
2022-07-25T10:18:30.371Z,6.20
2022-07-25T10:21:24.555Z,5.88
2022-07-25T10:24:02.858Z,6.20
2022-07-25T10:26:29.930Z,5.93
2022-07-25T10:28:56.382Z,6.15
2022-07-25T10:31:24.281Z,5.97
2022-07-25T10:33:52.667Z,5.97
2022-07-25T10:36:19.950Z,5.50
2022-07-25T10:38:46.691Z,5.82
2022-07-25T10:41:13.743Z,5.95
2022-07-25T10:43:48.713Z,5.45
2022-07-25T10:46:19.696Z,5.68
2022-07-25T10:48:57.368Z,6.03
2022-07-25T10:51:27.103Z,6.40
2022-07-25T10:53:55.188Z,6.28
2022-07-25T10:56:23.508Z,6.45
2022-07-25T10:58:53.079Z,6.20
2022-07-25T11:01:22.906Z,6.20
2022-07-25T11:03:51.785Z,6.45
2022-07-25T11:06:29.916Z,6.18
2022-07-25T11:08:57.844Z,6.63
2022-07-25T11:11:38.082Z,6.35
2022-07-25T11:14:05.595Z,6.28
2022-07-25T11:16:32.104Z,6.22
2022-07-25T11:18:58.539Z,6.00
2022-07-25T11:21:25.104Z,6.18
2022-07-25T11:23:52.244Z,6.20
2022-07-25T11:26:18.858Z,8.68
2022-07-25T11:28:48.996Z,5.90
2022-07-25T11:31:17.221Z,6.57
2022-07-25T11:33:46.269Z,5.85
2022-07-25T11:36:13.076Z,6.53
2022-07-25T11:38:40.448Z,6.50
2022-07-25T11:41:07.469Z,6.75
2022-07-25T11:43:33.853Z,6.82
2022-07-25T11:46:01.853Z,7.07
2022-07-25T11:48:31.213Z,6.38
2022-07-25T11:50:57.646Z,7.10
2022-07-25T11:53:25.990Z,7.20
2022-07-25T11:55:52.478Z,7.07
2022-07-25T11:58:19.057Z,6.80
2022-07-25T12:00:46.602Z,7.43
2022-07-25T12:03:19.157Z,7.28
2022-07-25T12:05:46.889Z,6.70
2022-07-25T12:08:14.345Z,7.10
2022-07-25T12:10:41.293Z,7.25
2022-07-25T12:13:09.396Z,7.50
2022-07-25T12:15:40.205Z,7.30
2022-07-25T12:18:09.340Z,6.90
2022-07-25T12:20:39.066Z,6.22
2022-07-25T12:23:06.614Z,5.80
2022-07-25T12:25:33.443Z,6.28
2022-07-25T12:28:00.223Z,6.75
2022-07-25T12:30:27.844Z,5.78
2022-07-25T12:32:54.611Z,6.50
2022-07-25T12:35:21.037Z,6.20
2022-07-25T12:37:47.540Z,6.32
2022-07-25T12:40:14.914Z,6.28
2022-07-25T12:42:41.401Z,6.38
2022-07-25T12:45:08.498Z,6.85
2022-07-25T12:47:35.033Z,6.80
2022-07-25T12:50:01.818Z,6.07
2022-07-25T12:52:28.538Z,5.60
2022-07-25T12:54:55.009Z,5.95
2022-07-25T12:57:21.396Z,5.60
2022-07-25T12:59:48.237Z,5.60
2022-07-25T13:02:15.216Z,5.93
2022-07-25T13:04:41.674Z,5.97
2022-07-25T13:07:08.253Z,5.63
2022-07-25T13:09:34.711Z,5.95
2022-07-25T13:12:03.869Z,7.07
2022-07-25T13:14:30.445Z,6.85
2022-07-25T13:16:57.106Z,6.75
2022-07-25T13:19:23.599Z,6.45
2022-07-25T13:21:51.984Z,7.10
2022-07-25T13:24:18.881Z,6.75
2022-07-25T13:26:45.376Z,6.95
2022-07-25T13:29:12.409Z,6.47
2022-07-25T13:31:39.702Z,7.32
2022-07-25T13:34:06.755Z,6.93
2022-07-25T13:36:33.931Z,7.18
2022-07-25T13:39:00.499Z,6.60
2022-07-25T13:41:26.991Z,6.80
2022-07-25T13:43:53.977Z,6.55
2022-07-25T13:46:20.585Z,7.30
2022-07-25T13:48:47.071Z,6.55
2022-07-25T13:51:13.597Z,5.97
2022-07-25T13:53:40.054Z,6.88
2022-07-25T13:56:06.639Z,6.93
2022-07-25T13:58:33.168Z,7.00
2022-07-25T14:00:59.611Z,7.45
2022-07-25T14:03:26.072Z,7.22
2022-07-25T14:05:52.520Z,7.13
2022-07-25T14:08:18.914Z,7.68
2022-07-25T14:10:45.336Z,7.22
2022-07-25T14:13:13.074Z,7.43
2022-07-25T14:15:39.685Z,6.72
2022-07-25T14:18:06.099Z,6.97
2022-07-25T14:20:33.039Z,6.72
2022-07-25T14:22:59.437Z,7.32
2022-07-25T14:25:25.911Z,6.60
2022-07-25T14:27:52.450Z,6.13
2022-07-25T14:30:18.812Z,6.00
2022-07-25T14:32:45.582Z,7.10
2022-07-25T14:35:12.140Z,6.60
2022-07-25T14:37:38.626Z,6.10
2022-07-25T14:40:05.685Z,6.32
2022-07-25T14:42:33.016Z,5.45
2022-07-25T14:44:59.998Z,5.63
2022-07-25T14:47:26.771Z,5.93
2022-07-25T14:49:54.063Z,6.60
2022-07-25T14:52:20.509Z,5.93
2022-07-25T14:54:46.988Z,6.63
2022-07-25T14:57:13.553Z,6.28
2022-07-25T14:59:39.969Z,5.93
2022-07-25T15:02:06.497Z,6.63
2022-07-25T15:04:33.047Z,6.00
2022-07-25T15:06:59.878Z,6.13
2022-07-25T15:09:26.317Z,6.60
2022-07-25T15:11:52.816Z,6.13
2022-07-25T15:14:19.251Z,6.80
2022-07-25T15:16:45.701Z,5.82
2022-07-25T15:19:17.118Z,5.95
2022-07-25T15:21:45.925Z,5.55
2022-07-25T15:24:12.901Z,5.30
2022-07-25T15:26:39.402Z,5.75
2022-07-25T15:29:06.729Z,5.45
2022-07-25T15:31:33.547Z,5.55
2022-07-25T15:34:00.129Z,5.60
2022-07-25T15:36:29.519Z,5.45
2022-07-25T15:38:56.310Z,4.97
2022-07-25T15:41:23.083Z,4.82
2022-07-25T15:43:49.561Z,4.80
2022-07-25T15:46:16.336Z,4.60
2022-07-25T15:48:43.596Z,4.20
2022-07-25T15:51:10.719Z,4.30
2022-07-25T15:53:37.205Z,4.25
2022-07-25T15:56:04.452Z,3.65
2022-07-25T15:58:30.887Z,4.72
2022-07-25T16:00:57.419Z,3.95
2022-07-25T16:03:24.075Z,3.60
2022-07-25T16:05:50.554Z,3.37
2022-07-25T16:08:17.101Z,3.53
2022-07-25T16:10:43.641Z,2.83
2022-07-25T16:13:10.047Z,2.63
2022-07-25T16:15:36.540Z,2.60
2022-07-25T16:18:03.338Z,2.77
2022-07-25T16:20:31.665Z,2.20
2022-07-25T16:22:59.051Z,2.33
2022-07-25T16:25:26.310Z,3.10
2022-07-25T16:27:52.966Z,2.50
2022-07-25T16:30:20.085Z,2.20
2022-07-25T16:32:46.596Z,2.47
2022-07-25T16:35:13.038Z,2.10
2022-07-25T16:37:41.365Z,2.00
2022-07-25T16:40:08.656Z,2.30
2022-07-25T16:42:35.402Z,1.80
2022-07-25T16:45:01.996Z,2.20
2022-07-25T16:47:28.453Z,1.90
2022-07-25T16:49:54.831Z,2.13
2022-07-25T16:52:22.631Z,1.80
2022-07-25T16:54:49.206Z,2.13
2022-07-25T16:57:15.613Z,1.83
2022-07-25T16:59:42.103Z,2.07
2022-07-25T17:02:08.832Z,1.73
2022-07-25T17:04:35.840Z,1.70
2022-07-25T17:07:02.410Z,1.80
2022-07-25T17:09:28.833Z,1.70
2022-07-25T17:11:55.252Z,1.50
2022-07-25T17:14:24.058Z,1.60
2022-07-25T17:16:54.243Z,2.00
2022-07-25T17:19:20.645Z,1.67
2022-07-25T17:21:48.841Z,1.70
2022-07-25T17:24:15.226Z,1.70
2022-07-25T17:26:41.878Z,1.30
2022-07-25T17:29:08.806Z,1.67
2022-07-25T17:31:35.726Z,1.33
2022-07-25T17:34:02.195Z,1.73
2022-07-25T17:36:28.595Z,1.50
2022-07-25T17:38:55.137Z,1.70
2022-07-25T17:41:21.531Z,1.50
2022-07-25T17:43:48.351Z,1.50
2022-07-25T17:46:15.642Z,1.50
2022-07-25T17:48:43.938Z,1.57
2022-07-25T17:51:10.785Z,1.50
2022-07-25T17:53:37.242Z,1.23
2022-07-25T17:56:04.357Z,1.23
2022-07-25T17:58:31.529Z,1.30
2022-07-25T18:01:01.174Z,1.10
2022-07-25T18:03:28.321Z,1.47
2022-07-25T18:05:55.293Z,1.30
2022-07-25T18:08:21.952Z,1.20
2022-07-25T18:10:49.821Z,1.60
2022-07-25T18:13:17.731Z,1.17
2022-07-25T18:15:44.872Z,1.43
2022-07-25T18:18:12.842Z,1.20
2022-07-25T18:20:44.160Z,1.10
2022-07-25T18:23:10.600Z,1.00
2022-07-25T18:25:37.065Z,1.10
2022-07-25T18:28:03.532Z,0.90
2022-07-25T18:30:30.018Z,0.77
2022-07-25T18:32:56.472Z,1.00
2022-07-25T18:35:22.995Z,1.00
2022-07-25T18:37:49.909Z,0.97
2022-07-25T18:40:16.566Z,0.80
2022-07-25T18:42:43.000Z,0.90
2022-07-25T18:45:10.082Z,1.20
2022-07-25T18:47:36.772Z,0.90
2022-07-25T18:50:03.510Z,0.90
2022-07-25T18:52:34.983Z,0.90
2022-07-25T18:55:08.753Z,0.83
2022-07-25T18:57:35.356Z,0.80
2022-07-25T19:00:03.412Z,0.80
2022-07-25T19:02:30.323Z,0.70
2022-07-25T19:04:56.798Z,0.70
2022-07-25T19:07:23.357Z,0.50
2022-07-25T19:09:50.597Z,0.70
2022-07-25T19:12:16.992Z,0.70
2022-07-25T19:14:44.830Z,0.60
2022-07-25T19:17:11.286Z,0.70
2022-07-25T19:19:37.779Z,0.70
2022-07-25T19:22:04.238Z,0.63
2022-07-25T19:24:31.369Z,0.70
2022-07-25T19:26:58.871Z,0.70
2022-07-25T19:29:26.535Z,0.70
2022-07-25T19:31:52.914Z,0.63
2022-07-25T19:34:20.605Z,0.60
2022-07-25T19:36:47.118Z,0.70
2022-07-25T19:39:13.708Z,0.67
2022-07-25T19:41:44.680Z,0.80
2022-07-25T19:44:13.201Z,0.80
2022-07-25T19:46:39.718Z,0.80
2022-07-25T19:49:06.319Z,0.70
2022-07-25T19:51:33.279Z,0.80
2022-07-25T19:54:03.063Z,1.00
2022-07-25T19:56:34.112Z,0.80
2022-07-25T19:59:01.843Z,0.80
2022-07-25T20:01:28.531Z,0.80
2022-07-25T20:03:55.021Z,0.80
2022-07-25T20:06:21.494Z,0.87
2022-07-25T20:08:49.816Z,0.70
2022-07-25T20:11:16.545Z,1.00
2022-07-25T20:13:43.017Z,0.80
2022-07-25T20:16:09.459Z,0.87
2022-07-25T20:18:35.850Z,0.80
2022-07-25T20:21:02.261Z,0.90
2022-07-25T20:23:28.729Z,1.20
2022-07-25T20:25:56.684Z,1.00
2022-07-25T20:28:23.144Z,0.87
2022-07-25T20:30:50.024Z,0.73
2022-07-25T20:33:18.501Z,0.80
2022-07-25T20:35:45.218Z,0.90
2022-07-25T20:38:11.592Z,0.90
2022-07-25T20:40:41.101Z,0.90
2022-07-25T20:43:10.488Z,0.90
2022-07-25T20:45:37.415Z,0.87
2022-07-25T20:48:04.245Z,1.10
2022-07-25T20:50:30.777Z,1.20
2022-07-25T20:52:57.529Z,1.00
2022-07-25T20:55:24.013Z,1.10
2022-07-25T20:57:50.955Z,1.00
2022-07-25T21:00:17.465Z,0.90
2022-07-25T21:02:45.900Z,0.93
2022-07-25T21:05:12.304Z,1.13
2022-07-25T21:07:38.740Z,0.97
2022-07-25T21:10:05.455Z,0.87
2022-07-25T21:12:33.044Z,1.10
2022-07-25T21:15:01.064Z,1.17
2022-07-25T21:17:27.524Z,1.00
2022-07-25T21:19:53.910Z,1.00
2022-07-25T21:22:21.661Z,0.90
2022-07-25T21:24:49.518Z,0.90
2022-07-25T21:27:16.400Z,1.23
2022-07-25T21:29:44.682Z,0.90
2022-07-25T21:32:13.532Z,0.90
2022-07-25T21:34:40.454Z,1.07
2022-07-25T21:37:07.243Z,0.80
2022-07-25T21:39:33.825Z,0.93
2022-07-25T21:42:00.275Z,1.17
2022-07-25T21:44:27.752Z,1.00
2022-07-25T21:46:54.148Z,0.90
2022-07-25T21:49:41.450Z,1.10
2022-07-25T21:52:08.561Z,1.10
2022-07-25T21:54:40.733Z,1.10
2022-07-25T21:57:07.142Z,1.20
2022-07-25T21:59:40.340Z,1.00
2022-07-25T22:02:06.731Z,0.90
2022-07-25T22:04:33.153Z,0.90
2022-07-25T22:06:59.582Z,1.30
2022-07-25T22:09:26.066Z,1.23
2022-07-25T22:11:53.874Z,1.03
2022-07-25T22:14:20.339Z,1.30
2022-07-25T22:16:46.771Z,1.20
2022-07-25T22:19:13.606Z,0.90
2022-07-25T22:21:40.794Z,1.10
2022-07-25T22:24:07.776Z,1.10
2022-07-25T22:26:34.314Z,1.10
2022-07-25T22:29:00.703Z,1.10
2022-07-25T22:31:27.159Z,0.90
2022-07-25T22:33:53.646Z,1.20
2022-07-25T22:36:20.042Z,1.13
2022-07-25T22:38:46.473Z,1.10
2022-07-25T22:41:12.873Z,1.23
2022-07-25T22:43:57.545Z,1.20
2022-07-25T22:46:25.952Z,1.10
2022-07-25T22:48:52.431Z,1.00
2022-07-25T22:51:18.886Z,1.20
2022-07-25T22:53:45.306Z,1.20
2022-07-25T22:56:11.730Z,1.17
2022-07-25T22:58:38.140Z,1.20
2022-07-25T23:01:04.576Z,1.40
2022-07-25T23:03:32.351Z,1.33
2022-07-25T23:05:59.664Z,1.17
2022-07-25T23:08:26.065Z,1.40
2022-07-25T23:10:52.502Z,1.30
2022-07-25T23:13:18.872Z,1.10
2022-07-25T23:15:50.513Z,1.50
2022-07-25T23:18:18.280Z,1.10
2022-07-25T23:20:44.652Z,1.07
2022-07-25T23:23:11.037Z,1.50
2022-07-25T23:25:37.448Z,1.40
2022-07-25T23:28:04.068Z,1.20
2022-07-25T23:30:30.555Z,1.20
2022-07-25T23:32:57.072Z,1.10
2022-07-25T23:35:23.622Z,1.20
2022-07-25T23:37:50.019Z,1.10
2022-07-25T23:40:16.452Z,1.40
2022-07-25T23:42:42.913Z,1.37
2022-07-25T23:45:10.143Z,1.30
2022-07-25T23:47:39.717Z,1.40
2022-07-25T23:50:07.947Z,1.20
2022-07-25T23:52:34.358Z,1.30
2022-07-25T23:55:01.013Z,1.30
2022-07-25T23:57:27.375Z,1.40
2022-07-25T23:59:53.780Z,1.20
